createdAt,value
2018-09-17T00:02:59.587Z,36.40
2018-09-17T00:08:03.099Z,36.32
2018-09-17T00:13:06.825Z,36.28
2018-09-17T00:18:10.630Z,36.46
2018-09-17T00:23:14.119Z,36.26
2018-09-17T00:28:17.572Z,36.25
2018-09-17T00:33:21.050Z,36.36
2018-09-17T00:38:24.576Z,36.53
2018-09-17T00:43:28.061Z,36.52
2018-09-17T00:48:31.625Z,36.18
2018-09-17T00:53:35.185Z,36.23
2018-09-17T00:58:38.631Z,36.42
2018-09-17T01:03:42.100Z,36.56
2018-09-17T01:08:45.576Z,36.30
2018-09-17T01:13:49.321Z,36.41
2018-09-17T01:18:52.776Z,36.58
2018-09-17T01:23:56.226Z,36.90
2018-09-17T01:28:59.675Z,36.47
2018-09-17T01:34:03.138Z,36.59
2018-09-17T01:39:08.531Z,36.54
2018-09-17T01:44:11.995Z,36.92
2018-09-17T01:49:15.593Z,36.76
2018-09-17T01:54:19.084Z,36.51
2018-09-17T01:59:22.602Z,36.62
2018-09-17T02:04:26.059Z,36.99
2018-09-17T02:09:29.524Z,36.70
2018-09-17T02:14:32.992Z,36.91
2018-09-17T02:19:36.799Z,36.80
2018-09-17T02:24:40.653Z,37.13
2018-09-17T02:29:44.096Z,36.88
2018-09-17T02:34:47.547Z,36.86
2018-09-17T02:39:51.016Z,37.05
2018-09-17T02:44:54.459Z,36.91
2018-09-17T02:49:57.894Z,37.08
2018-09-17T02:55:01.352Z,37.02
2018-09-17T03:00:06.265Z,37.25
2018-09-17T03:05:09.952Z,37.35
2018-09-17T03:10:13.469Z,37.41
2018-09-17T03:15:28.234Z,37.53
2018-09-17T03:20:31.939Z,37.54
2018-09-17T03:25:35.390Z,37.47
2018-09-17T03:30:38.848Z,37.24
2018-09-17T03:35:42.332Z,37.51
2018-09-17T03:40:45.771Z,37.70
2018-09-17T03:45:49.245Z,37.84
2018-09-17T03:50:52.690Z,37.76
2018-09-17T03:55:56.185Z,37.50
2018-09-17T04:01:00.303Z,37.14
2018-09-17T04:06:03.729Z,37.53
2018-09-17T04:11:07.159Z,37.30
2018-09-17T04:16:10.582Z,37.58
2018-09-17T04:21:14.077Z,37.64
2018-09-17T04:26:17.515Z,37.56
2018-09-17T04:31:20.950Z,37.37
2018-09-17T04:36:24.421Z,37.54
2018-09-17T04:41:27.931Z,38.49
2018-09-17T04:46:31.371Z,38.44
2018-09-17T04:51:34.825Z,38.58
2018-09-17T04:56:38.258Z,39.07
2018-09-17T05:01:41.755Z,39.06
2018-09-17T05:06:45.618Z,39.19
2018-09-17T05:11:49.063Z,39.53
2018-09-17T05:16:52.503Z,39.52
2018-09-17T05:21:55.967Z,39.43
2018-09-17T05:26:59.432Z,38.79
2018-09-17T05:32:02.883Z,39.30
2018-09-17T05:37:06.380Z,38.99
2018-09-17T05:42:09.863Z,39.05
2018-09-17T05:47:13.320Z,39.36
2018-09-17T05:52:16.766Z,39.39
2018-09-17T05:57:20.231Z,39.90
2018-09-17T06:02:23.676Z,39.79
2018-09-17T06:07:27.154Z,39.45
2018-09-17T06:12:30.643Z,39.84
2018-09-17T06:17:34.181Z,39.12
2018-09-17T06:22:37.626Z,40.07
2018-09-17T06:27:41.079Z,39.93
2018-09-17T06:32:44.532Z,39.82
2018-09-17T06:37:47.971Z,39.58
2018-09-17T06:42:51.419Z,40.06
2018-09-17T06:47:54.886Z,41.04
2018-09-17T06:52:58.327Z,42.20
2018-09-17T06:58:02.018Z,41.93
2018-09-17T07:03:05.492Z,42.74
2018-09-17T07:08:08.982Z,42.38
2018-09-17T07:13:12.435Z,41.75
2018-09-17T07:18:15.977Z,41.89
2018-09-17T07:23:19.454Z,41.93
2018-09-17T07:28:23.252Z,42.28
2018-09-17T07:33:26.691Z,41.61
2018-09-17T07:38:30.168Z,42.30
2018-09-17T07:43:33.642Z,42.18
2018-09-17T07:48:37.104Z,41.65
2018-09-17T07:53:40.543Z,42.00
2018-09-17T07:58:44.047Z,41.35
2018-09-17T08:03:47.513Z,41.94
2018-09-17T08:08:50.954Z,42.39
2018-09-17T08:13:54.434Z,41.98
2018-09-17T08:18:57.891Z,40.92
2018-09-17T08:24:01.331Z,40.73
2018-09-17T08:29:04.797Z,40.12
2018-09-17T08:34:08.273Z,40.05
2018-09-17T08:39:13.345Z,39.34
2018-09-17T08:44:16.804Z,39.42
2018-09-17T08:49:20.252Z,39.79
2018-09-17T08:54:23.697Z,39.01
2018-09-17T08:59:32.491Z,37.48
2018-09-17T09:04:41.312Z,37.31
2018-09-17T09:09:44.783Z,37.05
2018-09-17T09:14:52.374Z,37.13
2018-09-17T09:19:55.859Z,36.85
2018-09-17T09:24:59.322Z,36.95
2018-09-17T09:30:02.873Z,37.21
2018-09-17T09:35:06.316Z,36.57
2018-09-17T09:40:09.782Z,35.81
2018-09-17T09:45:13.589Z,36.64
2018-09-17T09:50:17.227Z,36.05
2018-09-17T09:55:20.691Z,35.91
2018-09-17T10:00:29.612Z,35.43
2018-09-17T10:05:33.060Z,35.52
2018-09-17T10:10:41.821Z,35.49
2018-09-17T10:15:48.358Z,35.13
2018-09-17T10:20:51.805Z,35.20
2018-09-17T10:25:55.272Z,35.45
2018-09-17T10:30:58.755Z,35.22
2018-09-17T10:36:02.261Z,35.35
2018-09-17T10:41:05.785Z,34.99
2018-09-17T10:46:09.259Z,34.77
2018-09-17T10:51:12.743Z,35.03
2018-09-17T10:56:16.227Z,34.12
2018-09-17T11:01:19.790Z,33.96
2018-09-17T11:06:23.268Z,34.00
2018-09-17T11:11:26.721Z,34.34
2018-09-17T11:16:30.205Z,35.41
2018-09-17T11:21:33.667Z,35.79
2018-09-17T11:26:37.156Z,36.91
2018-09-17T11:31:40.624Z,36.62
2018-09-17T11:36:44.132Z,37.04
2018-09-17T11:41:47.600Z,38.04
2018-09-17T11:46:51.059Z,39.25
2018-09-17T11:51:54.559Z,40.22
2018-09-17T11:56:58.023Z,39.55
2018-09-17T12:02:04.580Z,39.26
2018-09-17T12:07:13.394Z,39.04
2018-09-17T12:12:16.834Z,39.30
2018-09-17T12:17:20.298Z,39.27
2018-09-17T12:22:23.798Z,39.29
2018-09-17T12:27:27.271Z,39.58
2018-09-17T12:32:30.716Z,39.85
2018-09-17T12:37:34.188Z,39.87
2018-09-17T12:42:37.634Z,39.80
2018-09-17T12:47:41.144Z,40.10
2018-09-17T12:52:44.620Z,39.88
2018-09-17T12:57:48.062Z,39.83
2018-09-17T13:02:51.531Z,39.95
2018-09-17T13:07:54.977Z,40.05
2018-09-17T13:12:58.416Z,39.93
2018-09-17T13:18:01.899Z,39.97
2018-09-17T13:23:05.335Z,39.91
2018-09-17T13:28:08.828Z,39.96
2018-09-17T13:33:12.275Z,40.37
2018-09-17T13:38:15.752Z,40.44
2018-09-17T13:43:19.225Z,39.85
2018-09-17T13:48:22.722Z,39.83
2018-09-17T13:53:26.199Z,39.67
2018-09-17T13:58:29.660Z,39.83
2018-09-17T14:03:33.102Z,39.73
2018-09-17T14:08:36.576Z,40.01
2018-09-17T14:13:40.058Z,39.91
2018-09-17T14:18:43.531Z,40.14
2018-09-17T14:23:46.959Z,39.93
2018-09-17T14:28:50.429Z,40.37
2018-09-17T14:33:53.917Z,40.02
2018-09-17T14:38:57.372Z,40.67
2018-09-17T14:44:01.003Z,40.98
2018-09-17T14:49:04.465Z,41.14
2018-09-17T14:54:07.920Z,40.99
2018-09-17T14:59:11.426Z,40.93
2018-09-17T15:04:14.902Z,40.93
2018-09-17T15:09:18.395Z,40.55
2018-09-17T15:14:22.158Z,40.32
2018-09-17T15:19:25.626Z,40.11
2018-09-17T15:24:29.108Z,40.44
2018-09-17T15:29:32.553Z,40.54
2018-09-17T15:34:36.128Z,40.66
2018-09-17T15:39:39.598Z,40.79
2018-09-17T15:44:43.053Z,40.64
2018-09-17T15:49:46.646Z,40.59
2018-09-17T15:54:50.069Z,40.40
2018-09-17T15:59:53.543Z,40.70
2018-09-17T16:04:57.011Z,40.73
2018-09-17T16:10:00.553Z,41.28
2018-09-17T16:15:04.068Z,42.01
2018-09-17T16:20:07.657Z,42.85
2018-09-17T16:25:11.191Z,43.26
2018-09-17T16:30:14.635Z,43.76
2018-09-17T16:35:18.092Z,43.25
2018-09-17T16:40:21.643Z,43.00
2018-09-17T16:45:25.147Z,42.68
2018-09-17T16:50:28.756Z,42.00
2018-09-17T16:55:32.271Z,41.99
2018-09-17T17:00:35.712Z,42.03
2018-09-17T17:05:39.174Z,42.07
2018-09-17T17:10:42.724Z,41.82
2018-09-17T17:15:49.000Z,41.63
2018-09-17T17:20:52.448Z,42.05
2018-09-17T17:25:56.091Z,41.93
2018-09-17T17:30:59.571Z,41.55
2018-09-17T17:36:03.037Z,41.23
2018-09-17T17:41:07.878Z,41.43
2018-09-17T17:46:11.438Z,41.14
2018-09-17T17:51:14.798Z,41.01
2018-09-17T17:56:18.303Z,40.72
2018-09-17T18:01:22.048Z,40.97
2018-09-17T18:06:26.488Z,41.47
2018-09-17T18:11:29.955Z,41.21
2018-09-17T18:16:33.440Z,41.09
2018-09-17T18:21:37.050Z,41.17
2018-09-17T18:26:40.629Z,41.35
2018-09-17T18:31:44.170Z,41.01
2018-09-17T18:36:47.680Z,41.18
2018-09-17T18:41:51.162Z,40.97
2018-09-17T18:46:54.631Z,41.41
2018-09-17T18:51:58.108Z,41.76
2018-09-17T18:57:01.758Z,41.41
2018-09-17T19:02:05.395Z,41.73
2018-09-17T19:07:08.890Z,41.61
2018-09-17T19:12:12.536Z,41.84
2018-09-17T19:17:21.045Z,41.53
2018-09-17T19:22:29.860Z,41.87
2018-09-17T19:27:39.556Z,41.68
2018-09-17T19:32:43.259Z,41.16
2018-09-17T19:37:52.311Z,41.06
2018-09-17T19:42:55.834Z,40.90
2018-09-17T19:47:59.588Z,40.90
2018-09-17T19:53:03.183Z,41.38
2018-09-17T19:58:12.674Z,41.17
2018-09-17T20:03:16.170Z,40.95
2018-09-17T20:08:19.767Z,40.99
2018-09-17T20:13:23.264Z,41.54
2018-09-17T20:18:26.764Z,40.98
2018-09-17T20:23:30.267Z,40.94
2018-09-17T20:28:33.721Z,40.64
2018-09-17T20:33:37.354Z,41.11
2018-09-17T20:38:40.875Z,41.08
2018-09-17T20:43:44.335Z,41.14
2018-09-17T20:48:48.644Z,40.97
2018-09-17T20:53:52.116Z,41.38
2018-09-17T20:58:55.678Z,41.28
2018-09-17T21:03:59.130Z,41.18
2018-09-17T21:09:02.846Z,41.12
2018-09-17T21:14:06.818Z,41.16
2018-09-17T21:19:10.428Z,41.17
2018-09-17T21:24:13.819Z,41.22
2018-09-17T21:29:17.341Z,41.17
2018-09-17T21:34:20.839Z,41.03
2018-09-17T21:39:24.364Z,41.14
2018-09-17T21:44:27.850Z,41.02
2018-09-17T21:49:31.374Z,41.05
2018-09-17T21:54:34.889Z,40.61
2018-09-17T21:59:38.373Z,40.59
2018-09-17T22:04:41.907Z,40.88
2018-09-17T22:09:45.437Z,40.81
2018-09-17T22:14:48.975Z,41.00
2018-09-17T22:19:52.468Z,41.01
2018-09-17T22:24:55.997Z,40.84
2018-09-17T22:29:59.471Z,40.99
2018-09-17T22:35:02.974Z,41.07
2018-09-17T22:40:06.677Z,41.29
2018-09-17T22:45:10.230Z,41.22
2018-09-17T22:50:13.748Z,40.68
2018-09-17T22:55:17.285Z,40.70
2018-09-17T23:00:20.791Z,40.55
2018-09-17T23:05:24.270Z,40.73
2018-09-17T23:10:27.811Z,40.69
2018-09-17T23:15:31.311Z,40.55
2018-09-17T23:20:34.790Z,40.55
2018-09-17T23:25:38.232Z,40.58
2018-09-17T23:30:41.718Z,40.69
2018-09-17T23:35:45.268Z,40.51
2018-09-17T23:40:48.734Z,40.65
2018-09-17T23:45:52.179Z,40.82
2018-09-17T23:50:55.658Z,40.62
2018-09-17T23:55:59.132Z,40.57
